createdAt,value
2022-08-04T00:03:15.439Z,1.13
2022-08-04T00:08:30.446Z,0.80
2022-08-04T00:13:36.354Z,0.70
2022-08-04T00:18:45.358Z,0.70
2022-08-04T00:24:11.524Z,1.42
2022-08-04T00:29:10.866Z,1.00
2022-08-04T00:34:13.701Z,0.75
2022-08-04T00:39:17.094Z,0.90
2022-08-04T00:44:40.050Z,0.60
2022-08-04T00:50:00.043Z,0.50
2022-08-04T00:55:11.073Z,0.60
2022-08-04T01:00:14.591Z,0.85
2022-08-04T01:05:26.646Z,0.70
2022-08-04T01:10:51.304Z,0.60
2022-08-04T01:16:07.565Z,0.65
2022-08-04T01:21:30.642Z,0.60
2022-08-04T01:26:56.567Z,0.73
2022-08-04T01:32:39.608Z,0.60
2022-08-04T01:38:18.457Z,0.70
2022-08-04T01:43:24.127Z,0.50
2022-08-04T01:48:27.675Z,0.70
2022-08-04T01:53:34.961Z,0.60
2022-08-04T01:58:39.062Z,0.70
2022-08-04T02:04:21.602Z,0.60
2022-08-04T02:09:23.562Z,0.70
2022-08-04T02:14:59.964Z,0.70
2022-08-04T02:20:27.272Z,0.50
2022-08-04T02:25:32.582Z,0.90
2022-08-04T02:30:48.214Z,0.60
2022-08-04T02:35:56.272Z,0.70
2022-08-04T02:41:01.726Z,0.68
2022-08-04T02:46:05.169Z,0.75
2022-08-04T02:51:31.868Z,0.70
2022-08-04T02:56:35.391Z,0.90
2022-08-04T03:01:57.562Z,0.98
2022-08-04T03:07:24.412Z,0.80
2022-08-04T03:12:38.032Z,1.30
2022-08-04T03:18:10.144Z,0.80
2022-08-04T03:23:35.880Z,0.80
2022-08-04T03:28:46.444Z,0.90
2022-08-04T03:34:22.845Z,0.77
2022-08-04T03:40:01.577Z,0.73
2022-08-04T03:45:39.542Z,0.88
2022-08-04T03:51:35.886Z,0.90
2022-08-04T03:56:49.774Z,0.60
2022-08-04T04:02:14.785Z,0.80
2022-08-04T04:07:58.119Z,0.82
2022-08-04T04:13:22.124Z,0.80
2022-08-04T04:18:29.358Z,0.90
2022-08-04T04:23:32.204Z,1.00
2022-08-04T04:28:45.366Z,0.85
2022-08-04T04:34:08.176Z,0.80
2022-08-04T04:39:37.049Z,1.10
2022-08-04T04:44:57.070Z,0.98
2022-08-04T04:50:37.667Z,0.80
2022-08-04T04:55:53.006Z,0.68
2022-08-04T05:01:11.874Z,1.00
2022-08-04T05:06:31.224Z,1.10
2022-08-04T05:11:56.687Z,0.73
2022-08-04T05:17:06.210Z,0.95
2022-08-04T05:22:14.851Z,0.63
2022-08-04T05:27:22.272Z,0.57
2022-08-04T05:32:38.194Z,0.80
2022-08-04T05:37:43.893Z,0.70
2022-08-04T05:42:46.123Z,0.97
2022-08-04T05:47:48.259Z,1.10
2022-08-04T05:52:51.468Z,0.68
2022-08-04T05:58:02.647Z,0.98
2022-08-04T06:03:05.673Z,0.90
2022-08-04T06:08:13.488Z,0.70
2022-08-04T06:13:45.329Z,1.13
2022-08-04T06:20:02.191Z,0.65
2022-08-04T06:24:11.165Z,0.70
2022-08-04T06:29:23.687Z,0.77
2022-08-04T06:34:30.769Z,0.70
2022-08-04T06:39:34.094Z,0.95
2022-08-04T06:44:37.098Z,0.70
2022-08-04T06:49:55.028Z,1.08
2022-08-04T06:55:01.810Z,0.82
2022-08-04T07:00:10.920Z,0.73
2022-08-04T07:05:12.847Z,0.80
2022-08-04T07:10:17.950Z,0.60
2022-08-04T07:15:25.627Z,0.80
2022-08-04T07:20:34.298Z,0.75
2022-08-04T07:26:11.350Z,0.70
2022-08-04T07:31:02.500Z,0.70
2022-08-04T07:36:10.191Z,0.73
2022-08-04T07:46:37.611Z,0.80
2022-08-04T07:51:39.930Z,0.63
2022-08-04T07:56:43.426Z,0.80
2022-08-04T08:01:46.900Z,0.73
2022-08-04T08:06:48.713Z,0.68
2022-08-04T08:12:38.166Z,0.70
2022-08-04T08:17:14.794Z,0.70
2022-08-04T08:22:16.477Z,0.60
2022-08-04T08:27:18.931Z,0.60
2022-08-04T08:32:20.926Z,0.60
2022-08-04T08:37:47.578Z,1.13
2022-08-04T08:44:05.033Z,0.63
2022-08-04T08:49:01.641Z,0.60
2022-08-04T08:54:29.989Z,0.57
2022-08-04T08:59:53.496Z,0.60
2022-08-04T09:04:55.240Z,0.60
2022-08-04T09:10:23.188Z,0.50
2022-08-04T09:16:00.361Z,0.40
2022-08-04T09:21:26.628Z,0.50
2022-08-04T09:27:00.635Z,0.45
2022-08-04T09:32:26.858Z,0.65
2022-08-04T09:37:45.649Z,0.75
2022-08-04T09:43:02.054Z,0.50
2022-08-04T09:48:12.159Z,0.60
2022-08-04T09:53:35.748Z,0.75
2022-08-04T09:58:56.232Z,0.60
2022-08-04T10:04:09.882Z,0.80
2022-08-04T10:09:17.142Z,0.77
2022-08-04T10:14:51.359Z,0.80
2022-08-04T10:20:33.719Z,0.60
2022-08-04T10:26:08.638Z,0.60
2022-08-04T10:31:27.987Z,0.60
2022-08-04T10:36:46.420Z,0.60
2022-08-04T10:42:03.570Z,0.70
2022-08-04T10:47:14.058Z,0.63
2022-08-04T10:52:26.430Z,0.47
2022-08-04T10:57:44.037Z,0.50
2022-08-04T11:03:11.027Z,0.57
2022-08-04T11:08:35.808Z,1.02
2022-08-04T11:13:56.478Z,0.50
2022-08-04T11:19:23.541Z,0.60
2022-08-04T11:25:07.357Z,0.40
2022-08-04T11:30:13.386Z,0.60
2022-08-04T11:35:28.550Z,0.50
2022-08-04T11:40:37.785Z,0.30
2022-08-04T11:45:50.824Z,0.35
2022-08-04T11:50:54.240Z,0.40
2022-08-04T11:56:08.363Z,0.30
2022-08-04T12:01:21.688Z,0.30
2022-08-04T12:07:15.147Z,0.30
2022-08-04T12:12:50.942Z,0.30
2022-08-04T12:18:23.852Z,0.40
2022-08-04T12:23:43.753Z,0.30
2022-08-04T12:34:17.782Z,0.30
2022-08-04T12:39:20.874Z,0.55
2022-08-04T12:44:36.219Z,0.20
2022-08-04T12:49:40.443Z,0.20
2022-08-04T12:54:45.962Z,0.23
2022-08-04T12:59:56.898Z,0.20
2022-08-04T13:05:02.268Z,0.95
2022-08-04T13:10:12.589Z,0.20
2022-08-04T13:15:22.492Z,0.22
2022-08-04T13:20:30.421Z,0.25
2022-08-04T13:26:42.334Z,0.20
2022-08-04T13:31:00.234Z,0.20
2022-08-04T13:36:03.184Z,0.30
2022-08-04T13:41:06.865Z,0.30
2022-08-04T13:46:13.076Z,0.20
2022-08-04T13:51:18.769Z,0.20
2022-08-04T13:56:22.624Z,0.30
2022-08-04T14:07:16.155Z,0.30
2022-08-04T14:12:38.442Z,0.38
2022-08-04T14:17:44.196Z,0.30
2022-08-04T14:22:45.904Z,0.30
2022-08-04T14:27:52.712Z,0.30
2022-08-04T14:32:57.703Z,0.40
2022-08-04T14:38:05.532Z,0.40
2022-08-04T14:43:09.612Z,0.40
2022-08-04T14:48:13.760Z,0.20
2022-08-04T14:53:17.718Z,0.30
2022-08-04T14:58:36.010Z,0.40
2022-08-04T15:03:52.315Z,0.35
2022-08-04T15:08:57.313Z,0.30
2022-08-04T15:13:59.362Z,0.50
2022-08-04T15:19:01.939Z,0.32
2022-08-04T15:24:03.925Z,0.40
2022-08-04T15:29:16.448Z,0.28
2022-08-04T15:34:18.680Z,0.40
2022-08-04T15:39:32.051Z,0.35
2022-08-04T15:45:04.980Z,0.30
2022-08-04T15:50:08.407Z,0.40
2022-08-04T15:55:34.742Z,0.47
2022-08-04T16:00:51.916Z,0.30
2022-08-04T16:05:53.646Z,0.30
2022-08-04T16:10:55.420Z,0.30
2022-08-04T16:16:03.126Z,0.40
2022-08-04T16:21:16.464Z,0.38
2022-08-04T16:26:54.312Z,0.40
2022-08-04T16:32:06.922Z,0.30
2022-08-04T16:37:13.734Z,0.30
2022-08-04T16:42:30.682Z,0.28
2022-08-04T16:47:47.713Z,0.30
2022-08-04T16:52:52.221Z,0.30
2022-08-04T16:57:57.089Z,0.32
2022-08-04T17:03:01.776Z,0.25
2022-08-04T17:08:28.497Z,0.25
2022-08-04T17:14:03.722Z,0.20
2022-08-04T17:18:53.142Z,0.30
2022-08-04T17:24:14.752Z,0.25
2022-08-04T17:29:19.942Z,0.40
2022-08-04T17:34:22.367Z,0.30
2022-08-04T17:45:51.416Z,0.40
2022-08-04T17:50:43.353Z,0.30
2022-08-04T17:55:49.269Z,0.30
2022-08-04T18:01:23.111Z,0.20
2022-08-04T18:06:25.704Z,0.30
2022-08-04T18:11:29.744Z,0.28
2022-08-04T18:16:44.963Z,0.28
2022-08-04T18:22:00.610Z,0.65
2022-08-04T18:27:03.335Z,0.20
2022-08-04T18:32:09.529Z,0.30
2022-08-04T18:38:02.959Z,0.30
2022-08-04T18:42:37.302Z,0.40
2022-08-04T18:47:58.646Z,0.30
2022-08-04T18:53:01.167Z,0.55
2022-08-04T18:58:07.076Z,0.40
2022-08-04T19:03:09.550Z,0.20
2022-08-04T19:08:33.052Z,0.30
2022-08-04T19:13:34.888Z,0.30
2022-08-04T19:18:36.722Z,0.30
2022-08-04T19:24:27.515Z,0.40
2022-08-04T19:28:59.947Z,0.30
2022-08-04T19:34:04.774Z,0.40
2022-08-04T19:39:11.539Z,0.65
2022-08-04T19:44:13.609Z,0.50
2022-08-04T19:50:02.565Z,0.32
2022-08-04T19:54:40.808Z,0.38
2022-08-04T19:59:48.016Z,0.40
2022-08-04T20:04:50.083Z,0.50
2022-08-04T20:09:53.870Z,0.40
2022-08-04T20:14:55.650Z,0.50
2022-08-04T20:19:57.628Z,0.60
2022-08-04T20:25:11.042Z,0.40
2022-08-04T20:30:21.044Z,0.52
2022-08-04T20:35:28.919Z,0.50
2022-08-04T20:40:30.801Z,0.40
2022-08-04T20:45:57.247Z,0.40
2022-08-04T20:50:54.065Z,0.40
2022-08-04T20:55:56.393Z,0.40
2022-08-04T21:00:58.315Z,0.50
2022-08-04T21:06:00.113Z,0.40
2022-08-04T21:11:03.400Z,0.40
2022-08-04T21:16:08.424Z,0.50
2022-08-04T21:21:10.115Z,0.40
2022-08-04T21:26:22.675Z,0.52
2022-08-04T21:31:27.619Z,0.60
2022-08-04T21:36:29.568Z,0.40
2022-08-04T21:41:33.391Z,0.50
2022-08-04T21:46:42.488Z,0.63
2022-08-04T21:51:59.770Z,0.50
2022-08-04T21:57:03.445Z,1.17
2022-08-04T22:02:05.459Z,0.50
2022-08-04T22:07:09.564Z,0.65
2022-08-04T22:12:12.331Z,0.70
2022-08-04T22:17:14.170Z,0.57
2022-08-04T22:22:26.285Z,0.77
2022-08-04T22:27:47.341Z,0.60
2022-08-04T22:32:50.506Z,1.15
2022-08-04T22:38:06.272Z,0.68
2022-08-04T22:43:31.695Z,0.50
2022-08-04T22:48:37.767Z,0.60
2022-08-04T22:53:39.777Z,0.50
2022-08-04T22:58:45.331Z,0.75
2022-08-04T23:03:55.479Z,0.52
2022-08-04T23:08:57.847Z,0.70
2022-08-04T23:14:01.173Z,0.60
2022-08-04T23:19:09.496Z,0.40
2022-08-04T23:24:11.762Z,0.73
2022-08-04T23:29:15.115Z,0.90
2022-08-04T23:34:18.800Z,0.77
2022-08-04T23:39:20.978Z,0.50
2022-08-04T23:44:26.699Z,0.80
2022-08-04T23:49:43.519Z,0.60
2022-08-04T23:54:46.895Z,0.68
2022-08-04T23:59:55.034Z,0.70
